createdAt,value
2017-08-09T00:01:15.082Z,18.30
2017-08-09T00:03:41.054Z,18.20
2017-08-09T00:06:07.041Z,18.00
2017-08-09T00:08:32.986Z,17.90
2017-08-09T00:10:58.933Z,17.80
2017-08-09T00:13:24.918Z,17.60
2017-08-09T00:15:50.878Z,17.50
2017-08-09T00:18:16.825Z,17.50
2017-08-09T00:20:42.748Z,17.40
2017-08-09T00:23:08.729Z,17.40
2017-08-09T00:25:34.666Z,17.50
2017-08-09T00:28:00.621Z,17.50
2017-08-09T00:30:26.583Z,17.50
2017-08-09T00:32:52.571Z,17.60
2017-08-09T00:35:18.556Z,17.70
2017-08-09T00:37:45.249Z,17.50
2017-08-09T00:40:11.218Z,17.60
2017-08-09T00:45:32.003Z,17.40
2017-08-09T00:47:58.021Z,17.30
2017-08-09T00:50:23.977Z,17.50
2017-08-09T00:52:49.933Z,17.40
2017-08-09T00:55:15.911Z,17.40
2017-08-09T00:57:41.902Z,17.30
2017-08-09T01:00:07.878Z,16.90
2017-08-09T01:02:33.825Z,16.70
2017-08-09T01:05:00.547Z,17.00
2017-08-09T01:07:26.502Z,17.00
2017-08-09T01:09:53.213Z,16.80
2017-08-09T01:12:19.194Z,16.70
2017-08-09T01:14:45.993Z,16.60
2017-08-09T01:17:11.961Z,16.60
2017-08-09T01:19:38.640Z,16.50
2017-08-09T01:22:04.571Z,16.50
2017-08-09T01:24:30.560Z,16.50
2017-08-09T01:26:57.254Z,16.50
2017-08-09T01:29:23.202Z,16.40
2017-08-09T01:31:49.138Z,16.60
2017-08-09T01:34:15.092Z,16.50
2017-08-09T01:36:41.793Z,16.40
2017-08-09T01:39:07.728Z,16.30
2017-08-09T01:41:33.712Z,16.20
2017-08-09T01:43:59.714Z,16.20
2017-08-09T01:46:25.706Z,16.20
2017-08-09T01:48:51.658Z,16.10
2017-08-09T01:51:17.617Z,16.10
2017-08-09T01:53:43.566Z,16.20
2017-08-09T01:56:09.540Z,16.30
2017-08-09T01:58:36.257Z,16.50
2017-08-09T02:01:02.244Z,16.50
2017-08-09T02:03:30.274Z,16.40
2017-08-09T02:05:56.246Z,16.50
2017-08-09T02:08:22.953Z,16.30
2017-08-09T02:10:48.903Z,16.30
2017-08-09T02:13:15.627Z,16.40
2017-08-09T02:15:41.614Z,16.40
2017-08-09T02:18:07.652Z,16.50
2017-08-09T02:20:33.615Z,16.40
2017-08-09T02:23:00.393Z,16.60
2017-08-09T02:25:26.349Z,16.20
2017-08-09T02:27:52.329Z,15.80
2017-08-09T02:30:19.019Z,15.70
2017-08-09T02:32:44.993Z,15.70
2017-08-09T02:35:10.961Z,15.50
2017-08-09T02:37:36.881Z,15.50
2017-08-09T02:40:02.845Z,15.60
2017-08-09T02:42:28.802Z,15.60
2017-08-09T02:44:55.522Z,15.50
2017-08-09T02:47:21.466Z,15.50
2017-08-09T02:49:47.408Z,15.50
2017-08-09T02:52:13.391Z,15.70
2017-08-09T02:54:39.343Z,15.60
2017-08-09T02:57:05.281Z,15.80
2017-08-09T02:59:31.237Z,15.50
2017-08-09T03:01:57.194Z,15.50
2017-08-09T03:04:23.142Z,15.40
2017-08-09T03:06:49.094Z,15.40
2017-08-09T03:09:15.036Z,15.30
2017-08-09T03:11:40.991Z,15.20
2017-08-09T03:14:06.933Z,15.20
2017-08-09T03:16:32.883Z,15.40
2017-08-09T03:18:58.842Z,15.40
2017-08-09T03:21:24.782Z,15.60
2017-08-09T03:23:51.473Z,15.70
2017-08-09T03:26:17.406Z,15.70
2017-08-09T03:28:43.352Z,15.60
2017-08-09T03:31:09.287Z,15.70
2017-08-09T03:33:35.232Z,15.70
2017-08-09T03:36:01.922Z,15.30
2017-08-09T03:38:27.854Z,15.30
2017-08-09T03:40:53.799Z,15.30
2017-08-09T03:43:19.802Z,15.40
2017-08-09T03:45:45.743Z,15.30
2017-08-09T03:48:11.702Z,15.30
2017-08-09T03:50:38.382Z,15.30
2017-08-09T03:53:04.326Z,15.30
2017-08-09T03:55:30.270Z,15.10
2017-08-09T03:57:56.188Z,15.20
2017-08-09T04:00:22.148Z,15.40
2017-08-09T04:02:48.101Z,15.20
2017-08-09T04:05:14.798Z,15.20
2017-08-09T04:07:40.750Z,15.20
2017-08-09T04:10:06.682Z,15.30
2017-08-09T04:12:32.625Z,15.50
2017-08-09T04:14:58.565Z,15.30
2017-08-09T04:17:25.272Z,15.00
2017-08-09T04:19:51.230Z,14.90
2017-08-09T04:22:17.889Z,15.20
2017-08-09T04:24:43.826Z,15.10
2017-08-09T04:27:09.750Z,15.10
2017-08-09T04:29:35.710Z,15.00
2017-08-09T04:32:01.648Z,15.00
2017-08-09T04:34:27.577Z,14.70
2017-08-09T04:36:53.530Z,14.70
2017-08-09T04:39:19.441Z,14.90
2017-08-09T04:41:45.432Z,15.10
2017-08-09T04:44:11.364Z,15.20
2017-08-09T04:46:37.310Z,15.20
2017-08-09T04:49:03.243Z,15.40
2017-08-09T04:51:29.227Z,15.50
2017-08-09T04:53:55.169Z,15.50
2017-08-09T04:56:21.119Z,15.30
2017-08-09T04:58:47.049Z,15.20
2017-08-09T05:01:12.989Z,15.50
2017-08-09T05:03:38.924Z,15.30
2017-08-09T05:06:04.854Z,15.30
2017-08-09T05:08:31.542Z,15.60
2017-08-09T05:10:57.478Z,15.60
2017-08-09T05:13:23.421Z,15.80
2017-08-09T05:15:49.389Z,15.80
2017-08-09T05:18:16.100Z,15.70
2017-08-09T05:20:42.063Z,15.70
2017-08-09T05:23:08.763Z,15.90
2017-08-09T05:25:34.754Z,15.90
2017-08-09T05:28:00.715Z,16.00
2017-08-09T05:30:26.642Z,15.80
2017-08-09T05:32:52.588Z,16.00
2017-08-09T05:35:18.543Z,16.40
2017-08-09T05:37:45.242Z,16.50
2017-08-09T05:40:11.221Z,16.50
2017-08-09T05:42:37.909Z,17.10
2017-08-09T05:45:03.854Z,17.10
2017-08-09T05:47:29.798Z,16.90
2017-08-09T05:49:55.751Z,17.10
2017-08-09T05:52:21.699Z,17.30
2017-08-09T05:54:47.655Z,17.50
2017-08-09T05:57:13.653Z,17.40
2017-08-09T05:59:39.602Z,17.70
2017-08-09T06:02:05.558Z,17.70
2017-08-09T06:04:31.517Z,17.60
2017-08-09T06:06:58.214Z,17.60
2017-08-09T06:09:24.160Z,17.60
2017-08-09T06:11:50.109Z,17.50
2017-08-09T06:14:16.050Z,17.00
2017-08-09T06:16:42.016Z,17.10
2017-08-09T06:19:07.992Z,17.20
2017-08-09T06:21:34.685Z,16.70
2017-08-09T06:24:00.629Z,16.60
2017-08-09T06:26:26.658Z,16.70
2017-08-09T06:28:52.594Z,16.80
2017-08-09T06:31:18.514Z,16.80
2017-08-09T06:33:44.478Z,17.00
2017-08-09T06:36:11.147Z,17.20
2017-08-09T06:38:37.126Z,17.20
2017-08-09T06:41:03.100Z,17.30
2017-08-09T06:43:29.076Z,17.40
2017-08-09T06:45:55.041Z,17.40
2017-08-09T06:48:21.010Z,17.70
2017-08-09T06:50:46.959Z,17.60
2017-08-09T06:53:12.901Z,17.60
2017-08-09T06:55:38.847Z,17.60
2017-08-09T06:58:05.656Z,17.80
2017-08-09T07:00:31.622Z,17.70
2017-08-09T07:02:58.299Z,17.90
2017-08-09T07:05:24.550Z,17.90
2017-08-09T07:07:50.492Z,18.20
2017-08-09T07:10:16.447Z,18.40
2017-08-09T07:12:42.387Z,18.30
2017-08-09T07:15:09.134Z,18.10
2017-08-09T07:17:35.146Z,18.10
2017-08-09T07:20:01.082Z,17.90
2017-08-09T07:22:27.766Z,18.10
2017-08-09T07:24:53.774Z,18.00
2017-08-09T07:27:19.728Z,18.10
2017-08-09T07:29:47.731Z,18.20
2017-08-09T07:32:14.226Z,18.20
2017-08-09T07:34:40.318Z,18.40
2017-08-09T07:37:06.267Z,18.50
2017-08-09T07:39:33.044Z,18.80
2017-08-09T07:41:58.998Z,18.90
2017-08-09T07:44:25.234Z,19.10
2017-08-09T07:46:52.238Z,19.00
2017-08-09T07:49:18.198Z,19.30
2017-08-09T07:51:44.185Z,19.60
2017-08-09T07:54:11.951Z,20.00
2017-08-09T07:56:37.891Z,20.00
2017-08-09T07:59:04.087Z,20.00
2017-08-09T08:01:30.144Z,20.10
2017-08-09T08:03:57.004Z,19.70
2017-08-09T08:06:22.973Z,19.80
2017-08-09T08:08:48.914Z,19.90
2017-08-09T08:11:14.995Z,20.20
2017-08-09T08:13:41.210Z,20.50
2017-08-09T08:16:07.183Z,20.20
2017-08-09T08:18:33.229Z,20.20
2017-08-09T08:20:59.274Z,20.00
2017-08-09T08:23:25.305Z,20.40
2017-08-09T08:25:51.312Z,20.20
2017-08-09T08:28:17.405Z,20.40
2017-08-09T08:30:43.339Z,20.50
2017-08-09T08:33:09.274Z,20.50
2017-08-09T08:35:35.262Z,20.50
2017-08-09T08:38:01.955Z,20.60
2017-08-09T08:40:27.901Z,20.60
2017-08-09T08:42:53.902Z,20.70
2017-08-09T08:45:19.865Z,20.90
2017-08-09T08:47:45.842Z,20.90
2017-08-09T08:50:11.782Z,20.90
2017-08-09T08:52:37.792Z,21.20
2017-08-09T08:55:03.776Z,21.50
2017-08-09T08:57:29.796Z,21.20
2017-08-09T08:59:55.761Z,21.00
2017-08-09T09:02:21.746Z,21.20
2017-08-09T09:04:47.716Z,21.40
2017-08-09T09:07:14.406Z,21.20
2017-08-09T09:09:40.350Z,21.20
2017-08-09T09:12:06.305Z,21.20
2017-08-09T09:14:32.275Z,21.10
2017-08-09T09:17:08.633Z,21.50
2017-08-09T09:19:34.610Z,21.70
2017-08-09T09:22:00.558Z,21.70
2017-08-09T09:24:26.551Z,22.00
2017-08-09T09:26:52.506Z,21.90
2017-08-09T09:29:18.444Z,21.50
2017-08-09T09:31:45.134Z,21.30
2017-08-09T09:34:11.073Z,21.20
2017-08-09T09:36:37.029Z,21.40
2017-08-09T09:39:02.978Z,21.10
2017-08-09T09:41:30.709Z,21.60
2017-08-09T09:43:56.642Z,21.70
2017-08-09T09:46:40.169Z,21.40
2017-08-09T09:49:06.138Z,21.70
2017-08-09T09:51:32.922Z,21.90
2017-08-09T09:53:58.866Z,22.00
2017-08-09T09:56:24.831Z,22.10
2017-08-09T09:58:50.829Z,22.40
2017-08-09T10:01:16.773Z,22.60
2017-08-09T10:03:42.700Z,22.60
2017-08-09T10:06:09.422Z,23.50
2017-08-09T10:08:35.411Z,23.50
2017-08-09T10:11:01.482Z,24.00
2017-08-09T10:13:27.476Z,24.20
2017-08-09T10:16:09.338Z,23.70
2017-08-09T10:18:35.356Z,23.90
2017-08-09T10:21:02.134Z,23.90
2017-08-09T10:23:28.127Z,23.80
2017-08-09T10:25:54.133Z,24.10
2017-08-09T10:28:20.102Z,24.20
2017-08-09T10:30:46.877Z,24.10
2017-08-09T10:33:12.839Z,24.10
2017-08-09T10:35:38.777Z,24.20
2017-08-09T10:38:04.724Z,24.40
2017-08-09T10:40:31.418Z,24.40
2017-08-09T10:42:57.383Z,24.30
2017-08-09T10:45:23.339Z,24.20
2017-08-09T10:47:50.030Z,24.60
2017-08-09T10:50:15.984Z,24.60
2017-08-09T10:52:41.924Z,24.90
2017-08-09T10:55:08.609Z,25.70
2017-08-09T10:57:34.583Z,25.70
2017-08-09T11:00:00.541Z,25.90
2017-08-09T11:02:33.542Z,26.40
2017-08-09T11:04:59.545Z,26.40
2017-08-09T11:07:25.553Z,26.40
2017-08-09T11:09:51.529Z,26.30
2017-08-09T11:12:17.462Z,26.70
2017-08-09T11:14:43.451Z,27.00
2017-08-09T11:20:04.662Z,27.40
2017-08-09T11:22:30.617Z,27.40
2017-08-09T11:24:57.412Z,27.70
2017-08-09T11:27:23.353Z,27.70
2017-08-09T11:29:49.327Z,28.00
2017-08-09T11:32:16.017Z,27.70
2017-08-09T11:34:41.985Z,27.70
2017-08-09T11:37:07.990Z,27.70
2017-08-09T11:39:34.048Z,27.90
2017-08-09T11:42:00.749Z,28.20
2017-08-09T11:44:26.763Z,28.20
2017-08-09T11:46:52.732Z,28.30
2017-08-09T11:49:18.699Z,27.90
2017-08-09T11:51:44.654Z,28.00
2017-08-09T11:54:10.655Z,28.00
2017-08-09T11:56:54.620Z,28.30
2017-08-09T11:59:20.570Z,28.30
2017-08-09T12:01:46.582Z,28.50
2017-08-09T12:04:12.514Z,28.90
2017-08-09T12:06:38.483Z,29.00
2017-08-09T12:09:05.169Z,28.70
2017-08-09T12:11:31.186Z,28.60
2017-08-09T12:13:57.136Z,28.50
2017-08-09T12:16:23.213Z,28.80
2017-08-09T12:18:49.906Z,28.40
2017-08-09T12:21:15.870Z,28.40
2017-08-09T12:23:41.837Z,28.50
2017-08-09T12:26:07.778Z,28.70
2017-08-09T12:28:33.829Z,28.80
2017-08-09T12:30:59.759Z,28.80
2017-08-09T12:33:25.719Z,29.20
2017-08-09T12:35:52.401Z,29.90
2017-08-09T12:38:18.359Z,29.80
2017-08-09T12:40:44.370Z,30.00
2017-08-09T12:43:18.238Z,30.00
2017-08-09T12:45:44.463Z,29.90
2017-08-09T12:48:10.429Z,29.60
2017-08-09T12:50:36.395Z,29.90
2017-08-09T12:53:02.350Z,29.80
2017-08-09T12:55:29.079Z,30.10
2017-08-09T12:57:55.020Z,30.10
2017-08-09T13:00:21.712Z,30.20
2017-08-09T13:02:47.676Z,30.20
2017-08-09T13:05:13.637Z,30.30
2017-08-09T13:07:39.579Z,30.50
2017-08-09T13:10:05.584Z,30.80
2017-08-09T13:12:32.309Z,31.10
2017-08-09T13:14:58.250Z,31.10
2017-08-09T13:17:24.190Z,31.50
2017-08-09T13:19:50.901Z,31.00
2017-08-09T13:22:16.882Z,30.90
2017-08-09T13:24:42.861Z,30.50
2017-08-09T13:27:08.829Z,30.70
2017-08-09T13:29:35.505Z,31.10
2017-08-09T13:32:15.493Z,31.10
2017-08-09T13:34:41.437Z,30.90
2017-08-09T13:37:08.221Z,30.80
2017-08-09T13:39:34.165Z,30.70
2017-08-09T13:42:00.130Z,30.80
2017-08-09T13:44:26.916Z,31.40
2017-08-09T13:46:52.854Z,31.40
2017-08-09T13:49:32.805Z,31.80
2017-08-09T13:51:59.571Z,31.60
2017-08-09T13:54:25.541Z,31.60
2017-08-09T13:56:51.499Z,31.40
2017-08-09T13:59:17.473Z,31.00
2017-08-09T14:01:43.437Z,30.50
2017-08-09T14:04:17.897Z,30.30
2017-08-09T14:06:43.851Z,30.10
2017-08-09T14:09:10.598Z,29.40
2017-08-09T14:11:37.297Z,29.10
2017-08-09T14:14:03.286Z,29.10
2017-08-09T14:16:30.022Z,28.90
2017-08-09T14:18:56.023Z,28.90
2017-08-09T14:21:21.975Z,28.80
2017-08-09T14:23:47.924Z,28.70
2017-08-09T14:26:13.865Z,28.50
2017-08-09T14:28:39.803Z,28.50
2017-08-09T14:31:05.770Z,29.00
2017-08-09T14:33:31.743Z,29.50
2017-08-09T14:35:57.711Z,29.90
2017-08-09T14:38:23.673Z,30.00
2017-08-09T14:40:50.367Z,30.50
2017-08-09T14:43:16.350Z,30.50
2017-08-09T14:45:43.036Z,31.20
2017-08-09T14:48:09.001Z,31.20
2017-08-09T14:50:34.980Z,31.80
2017-08-09T14:53:01.003Z,31.80
2017-08-09T14:55:26.946Z,31.70
2017-08-09T14:57:52.885Z,31.70
2017-08-09T15:00:18.905Z,32.10
2017-08-09T15:02:44.910Z,32.50
2017-08-09T15:05:10.966Z,32.90
2017-08-09T15:07:36.943Z,33.40
2017-08-09T15:10:03.651Z,33.90
2017-08-09T15:12:29.589Z,33.90
2017-08-09T15:14:55.557Z,33.70
2017-08-09T15:17:22.255Z,33.30
2017-08-09T15:19:48.206Z,33.30
2017-08-09T15:22:14.142Z,33.30
2017-08-09T15:24:40.841Z,33.70
2017-08-09T15:27:06.775Z,33.70
2017-08-09T15:29:32.703Z,33.80
2017-08-09T15:31:58.649Z,33.90
2017-08-09T15:34:24.573Z,33.90
2017-08-09T15:36:50.518Z,33.90
2017-08-09T15:39:16.466Z,34.30
2017-08-09T15:41:43.137Z,34.80
2017-08-09T15:44:09.069Z,34.80
2017-08-09T15:46:35.026Z,35.00
2017-08-09T15:49:00.972Z,35.20
2017-08-09T15:51:26.905Z,35.60
2017-08-09T15:53:53.617Z,36.00
2017-08-09T15:56:19.556Z,35.90
2017-08-09T15:58:45.513Z,35.90
2017-08-09T16:01:12.226Z,36.30
2017-08-09T16:03:38.214Z,36.30
2017-08-09T16:06:04.165Z,36.50
2017-08-09T16:08:32.184Z,36.70
2017-08-09T16:11:02.150Z,36.70
2017-08-09T16:16:18.953Z,36.70
2017-08-09T16:18:45.011Z,36.50
2017-08-09T16:21:10.973Z,36.70
2017-08-09T16:23:36.939Z,36.70
2017-08-09T16:26:02.894Z,37.00
2017-08-09T16:28:28.838Z,37.20
2017-08-09T16:30:54.805Z,37.40
2017-08-09T16:33:21.527Z,37.20
2017-08-09T16:36:02.902Z,37.20
2017-08-09T16:38:28.868Z,37.00
2017-08-09T16:40:55.603Z,36.70
2017-08-09T16:43:22.305Z,36.90
2017-08-09T16:45:48.325Z,37.00
2017-08-09T16:48:14.282Z,36.70
2017-08-09T16:50:40.237Z,36.40
2017-08-09T16:53:06.961Z,36.20
2017-08-09T16:55:32.908Z,36.20
2017-08-09T16:57:59.587Z,35.10
2017-08-09T17:00:25.524Z,35.10
2017-08-09T17:02:51.509Z,35.10
2017-08-09T17:05:18.203Z,34.80
2017-08-09T17:07:44.201Z,34.70
2017-08-09T17:10:10.154Z,34.20
2017-08-09T17:12:36.105Z,33.50
2017-08-09T17:15:02.055Z,33.00
2017-08-09T17:17:28.039Z,32.40
2017-08-09T17:19:54.004Z,31.90
2017-08-09T17:22:20.713Z,31.10
2017-08-09T17:24:46.673Z,31.10
2017-08-09T17:27:12.666Z,31.00
2017-08-09T17:29:38.634Z,30.70
2017-08-09T17:32:04.591Z,30.40
2017-08-09T17:34:30.542Z,30.10
2017-08-09T17:36:56.485Z,30.00
2017-08-09T17:39:24.930Z,29.80
2017-08-09T17:41:50.893Z,29.50
2017-08-09T17:44:16.825Z,29.40
2017-08-09T17:46:42.789Z,29.30
2017-08-09T17:49:09.959Z,29.00
2017-08-09T17:51:36.644Z,28.90
2017-08-09T17:54:02.647Z,28.90
2017-08-09T17:56:28.577Z,28.80
2017-08-09T17:58:54.703Z,28.70
2017-08-09T18:01:21.059Z,28.60
2017-08-09T18:03:47.054Z,28.40
2017-08-09T18:06:13.767Z,27.80
2017-08-09T18:08:39.740Z,27.80
2017-08-09T18:11:05.718Z,27.40
2017-08-09T18:13:31.669Z,27.40
2017-08-09T18:15:57.645Z,27.40
2017-08-09T18:18:23.634Z,27.40
2017-08-09T18:20:50.340Z,27.30
2017-08-09T18:23:16.292Z,27.30
2017-08-09T18:25:42.237Z,27.40
2017-08-09T18:28:09.034Z,27.30
2017-08-09T18:30:34.981Z,27.40
2017-08-09T18:33:00.950Z,27.30
2017-08-09T18:35:26.963Z,27.20
2017-08-09T18:37:53.666Z,27.00
2017-08-09T18:40:19.614Z,27.00
2017-08-09T18:42:45.653Z,26.80
2017-08-09T18:45:11.702Z,26.70
2017-08-09T18:47:38.431Z,26.60
2017-08-09T18:50:04.400Z,26.60
2017-08-09T18:52:30.414Z,26.50
2017-08-09T18:54:56.397Z,26.50
2017-08-09T18:57:22.398Z,26.40
2017-08-09T18:59:48.392Z,26.20
2017-08-09T19:02:15.134Z,25.90
2017-08-09T19:04:41.868Z,25.90
2017-08-09T19:10:18.254Z,25.90
2017-08-09T19:12:45.001Z,25.60
2017-08-09T19:15:10.966Z,25.60
2017-08-09T19:17:36.970Z,25.80
2017-08-09T19:20:02.941Z,25.90
2017-08-09T19:22:28.930Z,26.00
2017-08-09T19:24:54.889Z,26.10
2017-08-09T19:27:20.897Z,26.20
2017-08-09T19:29:46.865Z,26.20
2017-08-09T19:32:12.848Z,26.10
2017-08-09T19:34:38.861Z,26.00
2017-08-09T19:37:04.839Z,26.00
2017-08-09T19:39:30.818Z,26.10
2017-08-09T19:41:57.514Z,25.70
2017-08-09T19:44:23.516Z,25.70
2017-08-09T19:46:57.211Z,25.60
2017-08-09T19:49:23.177Z,25.60
2017-08-09T19:51:49.429Z,25.40
2017-08-09T19:54:15.404Z,25.10
2017-08-09T19:56:41.378Z,25.00
2017-08-09T19:59:07.375Z,24.80
2017-08-09T20:01:33.450Z,24.80
2017-08-09T20:03:59.438Z,24.80
2017-08-09T20:06:25.397Z,24.80
2017-08-09T20:08:51.392Z,24.80
2017-08-09T20:11:17.367Z,24.60
2017-08-09T20:13:43.373Z,24.70
2017-08-09T20:16:09.364Z,24.70
2017-08-09T20:18:35.319Z,24.60
2017-08-09T20:21:04.589Z,24.20
2017-08-09T20:23:30.523Z,24.10
2017-08-09T20:25:56.489Z,24.10
2017-08-09T20:28:22.533Z,24.10
2017-08-09T20:30:48.512Z,24.10
2017-08-09T20:33:14.462Z,24.10
2017-08-09T20:35:40.462Z,24.20
2017-08-09T20:38:07.059Z,24.20
2017-08-09T20:40:33.074Z,24.10
2017-08-09T20:42:59.005Z,24.20
2017-08-09T20:45:24.970Z,24.20
2017-08-09T20:47:51.677Z,24.10
2017-08-09T20:50:17.686Z,24.10
2017-08-09T20:52:43.694Z,24.20
2017-08-09T20:55:09.704Z,24.20
2017-08-09T20:57:35.702Z,24.10
2017-08-09T21:00:01.770Z,24.20
2017-08-09T21:02:28.065Z,24.00
2017-08-09T21:04:54.050Z,24.00
2017-08-09T21:07:20.072Z,23.80
2017-08-09T21:09:46.026Z,23.80
2017-08-09T21:12:12.052Z,23.80
2017-08-09T21:14:38.107Z,23.80
2017-08-09T21:17:04.073Z,23.90
2017-08-09T21:19:30.121Z,23.90
2017-08-09T21:21:56.095Z,23.80
2017-08-09T21:24:22.112Z,23.90
2017-08-09T21:26:48.134Z,23.90
2017-08-09T21:29:14.187Z,23.80
2017-08-09T21:31:40.156Z,23.50
2017-08-09T21:34:06.154Z,22.80
2017-08-09T21:36:32.895Z,21.90
2017-08-09T21:38:58.913Z,21.90
2017-08-09T21:41:24.905Z,21.70
2017-08-09T21:43:50.898Z,21.50
2017-08-09T21:46:42.903Z,21.40
2017-08-09T21:49:08.870Z,21.40
2017-08-09T21:51:34.805Z,21.40
2017-08-09T21:54:00.783Z,21.30
2017-08-09T21:56:26.727Z,21.30
2017-08-09T21:58:53.449Z,21.70
2017-08-09T22:01:19.422Z,21.70
2017-08-09T22:03:45.408Z,21.50
2017-08-09T22:06:11.357Z,21.00
2017-08-09T22:08:38.046Z,20.50
2017-08-09T22:11:03.989Z,20.40
2017-08-09T22:13:29.940Z,20.00
2017-08-09T22:15:55.889Z,19.80
2017-08-09T22:18:22.561Z,19.60
2017-08-09T22:20:48.524Z,19.60
2017-08-09T22:23:14.518Z,19.90
2017-08-09T22:26:03.521Z,20.30
2017-08-09T22:28:29.466Z,20.50
2017-08-09T22:30:56.171Z,20.70
2017-08-09T22:33:22.110Z,20.70
2017-08-09T22:35:48.071Z,20.80
2017-08-09T22:38:14.734Z,21.10
2017-08-09T22:40:40.690Z,21.00
2017-08-09T22:43:06.629Z,21.10
2017-08-09T22:45:32.593Z,21.00
2017-08-09T22:47:59.298Z,20.80
2017-08-09T22:50:25.242Z,20.80
2017-08-09T22:52:51.172Z,20.80
2017-08-09T22:55:17.118Z,21.00
2017-08-09T22:57:43.817Z,21.00
2017-08-09T23:00:09.772Z,21.00
2017-08-09T23:02:35.712Z,21.00
2017-08-09T23:05:01.654Z,21.00
2017-08-09T23:07:27.606Z,21.00
2017-08-09T23:09:53.537Z,21.00
2017-08-09T23:12:19.469Z,21.00
2017-08-09T23:14:45.421Z,21.00
2017-08-09T23:17:11.378Z,21.00
2017-08-09T23:19:37.347Z,21.00
2017-08-09T23:22:03.297Z,21.10
2017-08-09T23:24:29.250Z,21.00
2017-08-09T23:26:55.231Z,21.00
2017-08-09T23:29:21.173Z,20.90
2017-08-09T23:31:47.099Z,20.70
2017-08-09T23:34:13.039Z,20.60
2017-08-09T23:36:39.028Z,20.50
2017-08-09T23:39:04.975Z,20.40
2017-08-09T23:41:30.940Z,20.10
2017-08-09T23:43:56.907Z,20.10
2017-08-09T23:46:22.845Z,20.10
2017-08-09T23:48:48.793Z,20.10
2017-08-09T23:51:14.730Z,20.10
2017-08-09T23:53:41.376Z,20.10
2017-08-09T23:56:07.320Z,20.20
2017-08-09T23:58:33.321Z,20.20
